Time;durP1;ratioP1;P1;durP2;ratioP2;P2;SDS_P1;SDS_P2;PMS_P1;PMS_P2;Temp;Humidity;BMP_temperature;BMP_pressure;BME280_temperature;BME280_humidity;BME280_pressure;Samples;Min_cycle;Max_cycle;Signal;HPM_P1;HPM_P2
2022/10/14 00:01:12;;;;;;;4.93;3.60;;;;;;;16.89;58.32;94958.25;5087783;28;20181;-86
2022/10/14 00:03:40;;;;;;;4.50;3.70;;;;;;;16.86;58.30;94951.66;5087679;28;20190;-85
2022/10/14 00:06:10;;;;;;;4.63;3.47;;;;;;;16.85;58.22;94962.97;5087937;28;20197;-85
2022/10/14 00:08:37;;;;;;;3.80;3.40;;;;;;;16.84;58.25;94958.78;5088308;28;20185;-85
2022/10/14 00:11:06;;;;;;;4.70;4.20;;;;;;;16.83;58.09;94949.41;5090604;28;20190;-84
2022/10/14 00:13:32;;;;;;;7.77;3.43;;;;;;;16.76;58.33;94941.53;5090984;28;20679;-84
2022/10/14 00:16:00;;;;;;;7.97;3.20;;;;;;;16.69;58.27;94927.66;5092049;28;20193;-86
2022/10/14 00:18:29;;;;;;;5.30;3.40;;;;;;;16.63;58.26;94919.78;5111869;28;20198;-86
2022/10/14 00:20:56;;;;;;;8.83;3.17;;;;;;;16.78;58.37;94949.09;5113958;28;20201;-88
2022/10/14 00:23:23;;;;;;;7.73;3.43;;;;;;;16.61;58.35;94922.53;5100495;28;20209;-87
2022/10/14 00:25:50;;;;;;;6.10;2.63;;;;;;;16.75;58.33;94937.34;5094526;28;20197;-87
2022/10/14 00:28:17;;;;;;;3.20;2.90;;;;;;;16.66;58.51;94927.97;5090929;28;20183;-84
2022/10/14 00:30:54;;;;;;;5.33;3.03;;;;;;;16.56;58.40;94930.78;5090710;28;20182;-84
2022/10/14 00:33:20;;;;;;;3.43;2.77;;;;;;;16.72;58.62;94944.59;5088999;28;20658;-85
2022/10/14 00:35:55;;;;;;;4.77;3.40;;;;;;;16.71;58.67;94948.13;5090270;28;20182;-84
2022/10/14 00:38:22;;;;;;;3.73;2.53;;;;;;;16.69;58.73;94947.50;5089661;28;20208;-85
2022/10/14 00:40:49;;;;;;;4.17;3.03;;;;;;;16.65;58.88;94933.31;5088780;28;20216;-82
2022/10/14 00:43:16;;;;;;;3.73;2.87;;;;;;;16.67;58.91;94939.13;5090027;28;20197;-84
2022/10/14 00:45:43;;;;;;;5.17;2.63;;;;;;;16.67;58.90;94936.56;5087641;28;20192;-84
2022/10/14 00:48:10;;;;;;;4.90;2.80;;;;;;;16.61;59.11;94926.88;5087365;28;20193;-85
2022/10/14 00:50:40;;;;;;;3.40;2.67;;;;;;;16.54;59.15;94919.03;5086719;28;20200;-84
2022/10/14 00:53:09;;;;;;;4.87;3.03;;;;;;;16.58;59.04;94927.22;5088242;28;20186;-85
2022/10/14 00:55:39;;;;;;;3.97;2.60;;;;;;;16.51;59.21;94909.03;5086719;28;20182;-84
2022/10/14 00:58:06;;;;;;;6.23;2.40;;;;;;;16.63;59.26;94930.13;5086006;28;20182;-82
2022/10/14 01:00:34;;;;;;;3.13;2.60;;;;;;;16.58;59.43;94917.72;5085880;28;20209;-83
2022/10/14 01:03:01;;;;;;;6.73;2.57;;;;;;;16.38;59.35;94877.78;5086073;28;20204;-85
2022/10/14 01:05:36;;;;;;;4.47;2.60;;;;;;;16.60;59.50;94920.91;5085900;28;20631;-83
2022/10/14 01:08:09;;;;;;;3.97;2.57;;;;;;;16.59;59.60;94916.72;5086492;28;20189;-83
2022/10/14 01:10:45;;;;;;;4.30;2.90;;;;;;;16.45;59.38;94894.19;5085927;28;20667;-85
2022/10/14 01:13:22;;;;;;;3.73;2.40;;;;;;;16.58;59.72;94909.13;5086420;28;20178;-83
2022/10/14 01:16:02;;;;;;;3.50;2.63;;;;;;;16.56;59.53;94904.16;5086201;28;20174;-84
2022/10/14 01:18:42;;;;;;;3.53;2.60;;;;;;;16.46;59.67;94880.34;5086117;28;20193;-83
2022/10/14 01:21:19;;;;;;;3.03;2.47;;;;;;;16.53;59.74;94892.38;5086290;28;20186;-84
2022/10/14 01:24:26;;;;;;;2.90;2.60;;;;;;;16.51;59.91;94883.22;5086509;28;20200;-84
2022/10/14 01:27:25;;;;;;;3.43;2.50;;;;;;;16.49;60.02;94883.38;5088070;28;20177;-81
2022/10/14 01:30:04;;;;;;;6.03;2.83;;;;;;;16.49;60.08;94877.38;4986757;28;20211;-83
2022/10/14 01:32:33;;;;;;;3.00;2.23;;;;;;;16.47;59.98;94885.31;4989441;28;20200;-84
2022/10/14 01:35:10;;;;;;;2.50;2.30;;;;;;;16.46;60.23;94875.16;4991463;28;20189;-81
2022/10/14 01:37:43;;;;;;;2.57;2.37;;;;;;;16.45;60.04;94876.13;4996270;28;20199;-83
2022/10/14 01:40:17;;;;;;;2.40;2.20;;;;;;;16.44;60.33;94875.31;4984996;28;20231;-82
2022/10/14 01:42:46;;;;;;;4.83;2.30;;;;;;;16.13;60.21;94826.28;4985872;28;20212;-83
2022/10/14 01:45:19;;;;;;;5.80;2.80;;;;;;;16.42;60.29;94874.69;4987078;28;20606;-83
2022/10/14 01:47:49;;;;;;;4.20;2.50;;;;;;;16.43;60.40;94870.34;4990046;28;20360;-83
2022/10/14 01:50:20;;;;;;;4.33;2.20;;;;;;;16.40;60.34;94861.13;4998865;28;20189;-83
2022/10/14 01:52:50;;;;;;;2.70;2.50;;;;;;;16.19;60.58;94835.13;4999783;28;20185;-83
2022/10/14 01:55:21;;;;;;;3.07;2.33;;;;;;;16.00;60.53;94810.53;4992173;28;20591;-83
2022/10/14 01:57:51;;;;;;;6.40;2.30;;;;;;;16.40;60.70;94878.41;4993322;28;20185;-82
2022/10/14 02:00:19;;;;;;;6.40;2.47;;;;;;;16.38;60.73;94876.00;4992039;28;20221;-83
2022/10/14 02:02:47;;;;;;;2.40;2.13;;;;;;;16.37;60.71;94866.66;4990437;28;20197;-83
2022/10/14 02:05:19;;;;;;;2.63;1.90;;;;;;;16.36;60.97;94877.13;4988776;28;20184;-82
2022/10/14 02:07:50;;;;;;;3.93;2.30;;;;;;;16.34;61.04;94874.72;5076306;28;20192;-83
2022/10/14 02:10:27;;;;;;;4.00;2.10;;;;;;;16.34;61.05;94876.50;5089553;28;20217;-83
2022/10/14 02:13:07;;;;;;;2.43;2.13;;;;;;;16.32;61.16;94866.38;5089701;28;20182;-83
2022/10/14 02:16:07;;;;;;;2.63;2.33;;;;;;;16.32;61.29;94874.09;5099034;28;20200;-83
2022/10/14 02:18:40;;;;;;;3.53;2.27;;;;;;;16.13;61.29;94846.13;5100626;28;20190;-83
2022/10/14 02:21:16;;;;;;;3.20;2.30;;;;;;;16.28;61.43;94871.06;5092357;28;20186;-83
2022/10/14 02:23:47;;;;;;;3.83;2.07;;;;;;;16.00;61.51;94831.16;5091123;28;20196;-83
2022/10/14 02:26:16;;;;;;;4.60;2.40;;;;;;;16.21;61.61;94862.38;5089753;28;20178;-83
2022/10/14 02:28:44;;;;;;;3.87;2.23;;;;;;;16.24;61.68;94864.63;5088676;28;20185;-83
2022/10/14 02:31:16;;;;;;;2.57;1.83;;;;;;;16.24;61.74;94866.41;5088879;28;20193;-82
2022/10/14 02:33:47;;;;;;;2.20;2.03;;;;;;;16.23;61.78;94868.16;5088908;28;20349;-84
2022/10/14 02:36:18;;;;;;;7.77;2.43;;;;;;;16.20;62.00;94863.34;5088821;28;20178;-84
2022/10/14 02:38:46;;;;;;;4.57;2.47;;;;;;;16.17;62.17;94852.56;5088475;28;20185;-82
2022/10/14 02:41:18;;;;;;;4.13;2.00;;;;;;;16.20;62.10;94857.38;5088957;28;20198;-83
2022/10/14 02:43:48;;;;;;;1.77;1.60;;;;;;;15.95;62.26;94820.56;5088977;28;20193;-82
2022/10/14 02:46:20;;;;;;;3.20;2.00;;;;;;;16.13;62.03;94859.81;5088318;28;20615;-83
2022/10/14 02:48:47;;;;;;;4.47;1.87;;;;;;;16.16;62.52;94863.84;5089093;28;20186;-83
2022/10/14 02:51:14;;;;;;;2.60;1.90;;;;;;;16.11;62.53;94854.03;5088756;28;20178;-84
2022/10/14 02:53:40;;;;;;;4.00;2.23;;;;;;;16.13;62.54;94846.91;5088899;28;20672;-84
2022/10/14 02:56:08;;;;;;;3.17;2.20;;;;;;;16.08;62.68;94844.03;5088274;28;20243;-83
2022/10/14 02:58:35;;;;;;;2.13;1.93;;;;;;;16.13;62.66;94856.44;5088956;28;20189;-83
2022/10/14 03:01:02;;;;;;;2.20;2.00;;;;;;;16.11;62.91;94856.63;5088978;28;20208;-84
2022/10/14 03:03:30;;;;;;;5.03;2.00;;;;;;;16.02;62.84;94834.41;5088685;28;20189;-84
2022/10/14 03:05:57;;;;;;;2.80;1.97;;;;;;;16.06;62.91;94851.13;5088708;28;20192;-84
2022/10/14 03:08:24;;;;;;;4.47;1.60;;;;;;;16.01;63.07;94840.50;5088532;28;20259;-83
2022/10/14 03:10:51;;;;;;;2.97;1.90;;;;;;;16.03;63.15;94852.28;5088981;28;20217;-83
2022/10/14 03:13:18;;;;;;;5.17;2.00;;;;;;;16.03;63.23;94848.91;5089661;28;20178;-84
2022/10/14 03:15:44;;;;;;;2.10;1.80;;;;;;;16.04;63.21;94850.50;5088765;28;20540;-83
2022/10/14 03:18:11;;;;;;;3.10;2.00;;;;;;;15.99;63.32;94845.84;5088862;28;20186;-83
2022/10/14 03:20:39;;;;;;;2.13;1.83;;;;;;;15.97;63.38;94839.25;5088821;28;20216;-84
2022/10/14 03:23:06;;;;;;;2.37;2.17;;;;;;;16.00;63.55;94839.72;5088657;28;20193;-83
2022/10/14 03:25:33;;;;;;;4.93;1.80;;;;;;;15.61;63.61;94780.34;5089398;28;20184;-83
2022/10/14 03:28:00;;;;;;;3.57;2.10;;;;;;;16.02;63.69;94837.78;5091570;28;20193;-83
2022/10/14 03:30:27;;;;;;;2.20;1.90;;;;;;;16.01;63.54;94846.47;5093844;28;20189;-83
2022/10/14 03:32:54;;;;;;;2.73;2.03;;;;;;;16.00;63.77;94850.03;5094005;28;20185;-83
2022/10/14 03:35:21;;;;;;;3.23;2.33;;;;;;;15.99;63.69;94840.69;5093016;28;20178;-83
2022/10/14 03:37:51;;;;;;;1.80;1.70;;;;;;;15.99;63.88;94847.63;5096308;28;20189;-82
2022/10/14 03:40:19;;;;;;;1.80;1.70;;;;;;;15.99;63.91;94850.22;5105629;28;20206;-82
2022/10/14 03:42:46;;;;;;;1.90;1.80;;;;;;;15.87;64.05;94834.28;5108181;28;20281;-86
2022/10/14 03:45:13;;;;;;;2.17;1.97;;;;;;;15.83;64.13;94825.25;5097536;28;20182;-84
2022/10/14 03:47:40;;;;;;;2.20;2.00;;;;;;;15.48;64.10;94770.56;5100006;28;20197;-82
2022/10/14 03:50:08;;;;;;;2.10;1.93;;;;;;;15.95;64.22;94849.72;5101245;28;20193;-82
2022/10/14 03:52:35;;;;;;;2.67;1.70;;;;;;;15.96;64.14;94847.94;5087626;28;20621;-83
2022/10/14 03:55:03;;;;;;;2.87;1.70;;;;;;;15.86;64.27;94835.25;5088549;28;20276;-83
2022/10/14 03:57:30;;;;;;;2.30;1.87;;;;;;;15.93;64.24;94841.38;5088340;28;20204;-83
2022/10/14 03:59:57;;;;;;;1.93;1.77;;;;;;;15.68;64.47;94807.13;5089044;28;20592;-84
2022/10/14 04:02:24;;;;;;;2.30;2.20;;;;;;;15.92;64.48;94842.31;5092956;28;20212;-83
2022/10/14 04:04:51;;;;;;;2.47;2.27;;;;;;;15.91;64.71;94835.56;5092168;28;20186;-84
2022/10/14 04:07:17;;;;;;;2.47;2.27;;;;;;;15.91;64.57;94832.19;5092777;28;20189;-85
2022/10/14 04:09:44;;;;;;;7.87;2.20;;;;;;;15.90;64.64;94835.75;5091550;28;20210;-83
2022/10/14 04:12:13;;;;;;;2.83;2.20;;;;;;;15.90;64.72;94833.97;5093058;28;20573;-85
2022/10/14 04:14:40;;;;;;;4.53;2.20;;;;;;;15.85;64.77;94819.97;5106007;28;20198;-84
2022/10/14 04:17:06;;;;;;;2.03;1.93;;;;;;;15.84;65.03;94824.28;5113144;28;20194;-84
2022/10/14 04:19:34;;;;;;;3.37;2.27;;;;;;;15.86;64.95;94827.53;5100245;28;20190;-83
2022/10/14 04:22:01;;;;;;;2.40;2.20;;;;;;;15.76;64.96;94812.25;5093336;28;20200;-85
2022/10/14 04:24:29;;;;;;;2.50;2.30;;;;;;;15.74;65.15;94796.13;5096109;28;20664;-87
2022/10/14 04:26:56;;;;;;;2.53;2.33;;;;;;;15.75;65.22;94802.09;5095452;28;20204;-86
2022/10/14 04:29:26;;;;;;;3.40;2.60;;;;;;;15.83;65.09;94814.94;5111818;28;20271;-85
2022/10/14 04:31:52;;;;;;;2.83;2.63;;;;;;;15.45;65.47;94768.31;5114167;28;20200;-87
2022/10/14 04:34:19;;;;;;;5.87;2.90;;;;;;;15.83;65.28;94827.03;5109452;28;20193;-84
2022/10/14 04:36:46;;;;;;;3.23;3.00;;;;;;;15.78;65.43;94822.38;5110241;28;20190;-83
2022/10/14 04:39:14;;;;;;;2.43;2.30;;;;;;;15.83;65.47;94827.03;5109781;28;20188;-83
2022/10/14 04:41:41;;;;;;;2.80;2.60;;;;;;;15.82;65.41;94817.72;5099385;28;20225;-85
2022/10/14 04:44:08;;;;;;;2.60;2.40;;;;;;;15.82;65.44;94817.72;5095440;28;20686;-90
2022/10/14 04:46:37;;;;;;;2.57;2.37;;;;;;;15.74;65.49;94809.03;5092859;28;20193;-89
2022/10/14 04:49:04;;;;;;;2.57;2.40;;;;;;;15.82;65.69;94818.50;5094579;28;20185;-86
2022/10/14 04:51:31;;;;;;;2.87;2.60;;;;;;;15.82;65.49;94812.56;5092615;28;20204;-89
2022/10/14 04:53:58;;;;;;;2.60;2.40;;;;;;;15.83;65.45;94809.00;5091896;28;20212;-83
2022/10/14 04:56:24;;;;;;;3.77;3.37;;;;;;;15.84;65.98;94808.00;5092692;28;20181;-88
2022/10/14 04:58:52;;;;;;;4.53;2.90;;;;;;;15.84;65.55;94815.75;5093460;28;20186;-88
2022/10/14 05:01:19;;;;;;;3.10;2.67;;;;;;;15.85;65.59;94810.44;5072666;28;20704;-85
2022/10/14 05:03:50;;;;;;;3.30;2.87;;;;;;;15.87;65.68;94810.28;5072959;28;20198;-85
2022/10/14 05:06:17;;;;;;;6.90;3.20;;;;;;;15.88;65.44;94817.03;5091385;28;20197;-86
2022/10/14 05:08:44;;;;;;;5.10;2.80;;;;;;;15.74;65.26;94782.44;5106180;28;20193;-86
2022/10/14 05:11:12;;;;;;;3.53;3.00;;;;;;;15.93;65.35;94809.59;5097481;28;20232;-85
2022/10/14 05:13:40;;;;;;;3.50;3.20;;;;;;;15.95;65.35;94810.25;5096752;28;20193;-84
2022/10/14 05:16:07;;;;;;;3.33;3.03;;;;;;;15.77;65.18;94776.94;5096196;28;20208;-86
2022/10/14 05:18:35;;;;;;;2.97;2.67;;;;;;;15.97;65.32;94810.88;5091219;28;20194;-86
2022/10/14 05:21:03;;;;;;;6.40;3.10;;;;;;;15.84;65.20;94774.50;5087271;28;20596;-83
2022/10/14 05:23:31;;;;;;;5.40;2.77;;;;;;;15.92;65.31;94784.78;5091989;28;20196;-88
2022/10/14 05:25:58;;;;;;;5.10;2.73;;;;;;;16.05;65.09;94801.31;5086728;28;20653;-87
2022/10/14 05:28:25;;;;;;;3.40;3.10;;;;;;;16.08;64.77;94800.19;5091365;28;20216;-86
2022/10/14 05:30:52;;;;;;;3.87;3.50;;;;;;;16.12;64.57;94800.66;5090794;28;20584;-85
2022/10/14 05:33:22;;;;;;;2.90;2.70;;;;;;;16.08;64.64;94784.69;5107720;28;20193;-88
2022/10/14 05:35:49;;;;;;;2.80;2.60;;;;;;;16.22;64.48;94803.81;5079436;28;20260;-83
2022/10/14 05:38:17;;;;;;;4.20;2.83;;;;;;;16.25;64.39;94806.88;5092107;28;20217;-85
2022/10/14 05:40:52;;;;;;;3.20;2.73;;;;;;;16.06;64.16;94771.16;5091972;28;20213;-84
2022/10/14 05:43:19;;;;;;;3.17;2.97;;;;;;;16.40;63.99;94808.72;5094336;28;20664;-85
2022/10/14 05:45:46;;;;;;;4.10;2.60;;;;;;;16.25;63.84;94775.91;5092500;28;20186;-87
2022/10/14 05:48:12;;;;;;;3.33;3.03;;;;;;;16.38;63.75;94784.88;5090585;28;20235;-87
2022/10/14 05:50:39;;;;;;;4.10;2.80;;;;;;;16.60;63.56;94809.88;5090330;28;20197;-87
2022/10/14 05:53:06;;;;;;;3.97;2.80;;;;;;;16.70;63.36;94817.41;5090800;28;20583;-89
2022/10/14 05:55:35;;;;;;;4.00;2.60;;;;;;;16.78;63.25;94810.44;5092493;28;20190;-87
2022/10/14 05:58:02;;;;;;;3.00;2.60;;;;;;;16.82;63.16;94817.84;5090550;28;20185;-88
2022/10/14 06:00:31;;;;;;;2.70;2.50;;;;;;;16.96;62.81;94824.81;5089976;28;20296;-84
2022/10/14 06:02:58;;;;;;;4.80;3.23;;;;;;;16.86;62.70;94801.03;5090953;28;20189;-86
2022/10/14 06:05:26;;;;;;;4.40;2.90;;;;;;;16.77;62.40;94774.44;5090959;28;20251;-90
2022/10/14 06:07:54;;;;;;;3.57;2.80;;;;;;;17.16;62.18;94823.38;5073908;28;20207;-87
2022/10/14 06:10:23;;;;;;;5.23;2.70;;;;;;;17.27;62.11;94832.47;5096859;28;20232;-84
2022/10/14 06:12:52;;;;;;;3.37;3.07;;;;;;;17.36;61.96;94835.78;5091887;28;20189;-87
2022/10/14 06:15:20;;;;;;;3.47;3.17;;;;;;;17.37;61.77;94819.31;5091057;28;20193;-86
2022/10/14 06:17:47;;;;;;;7.50;3.20;;;;;;;17.56;61.71;94842.88;5090946;28;20198;-86
2022/10/14 06:20:17;;;;;;;3.13;2.83;;;;;;;17.64;61.25;94839.41;5090713;28;20333;-89
2022/10/14 06:22:45;;;;;;;4.40;3.53;;;;;;;17.58;61.02;94822.03;5089975;28;20212;-90
2022/10/14 06:25:13;;;;;;;3.20;3.00;;;;;;;17.86;60.78;94855.06;5091610;28;20642;-87
2022/10/14 06:27:41;;;;;;;3.50;3.20;;;;;;;17.92;60.61;94849.97;5091652;28;20273;-91
2022/10/14 06:30:14;;;;;;;3.47;3.17;;;;;;;17.94;60.44;94829.09;5082976;28;20198;-90
2022/10/14 06:32:44;;;;;;;4.77;3.63;;;;;;;18.21;60.32;94854.31;5073013;28;20198;-91
2022/10/14 06:35:13;;;;;;;4.10;3.13;;;;;;;18.31;60.21;94848.88;5090268;28;20197;-88
2022/10/14 06:37:41;;;;;;;4.53;3.30;;;;;;;18.22;59.72;94830.06;5089921;28;20398;-88
2022/10/14 06:40:10;;;;;;;3.20;2.67;;;;;;;18.46;59.61;94859.19;5085997;28;20296;-87
2022/10/14 06:42:37;;;;;;;3.10;2.90;;;;;;;18.56;59.56;94847.53;5077316;28;20193;-88
2022/10/14 06:45:07;;;;;;;3.80;3.50;;;;;;;18.68;59.40;94862.63;5088231;28;20288;-88
2022/10/14 06:47:36;;;;;;;3.07;2.87;;;;;;;18.79;59.10;94860.38;5090649;28;20583;-87
2022/10/14 06:50:04;;;;;;;3.47;3.17;;;;;;;18.71;59.13;94834.59;5086386;28;20384;-86
2022/10/14 06:52:32;;;;;;;4.03;3.20;;;;;;;18.84;58.88;94840.91;5083778;28;20213;-86
2022/10/14 06:55:01;;;;;;;6.90;3.00;;;;;;;19.03;58.55;94861.00;5086137;28;20217;-85
2022/10/14 06:57:29;;;;;;;6.83;3.30;;;;;;;18.93;58.17;94825.03;5096193;28;20186;-87
2022/10/14 06:59:57;;;;;;;3.43;3.00;;;;;;;19.00;58.10;94831.09;5097605;28;20232;-85
2022/10/14 07:02:26;;;;;;;3.60;2.90;;;;;;;19.20;58.12;94856.38;5090369;28;20233;-88
2022/10/14 07:04:57;;;;;;;3.10;2.80;;;;;;;19.10;58.05;94825.59;5085967;28;20202;-89
2022/10/14 07:07:26;;;;;;;3.47;3.00;;;;;;;19.37;57.67;94856.91;5097935;28;20259;-88
2022/10/14 07:09:54;;;;;;;3.47;2.83;;;;;;;19.46;57.67;94845.41;5096140;28;20222;-90
2022/10/14 07:12:23;;;;;;;3.00;2.80;;;;;;;19.27;57.68;94813.16;5094371;28;20793;-88
2022/10/14 07:14:52;;;;;;;4.60;3.37;;;;;;;19.62;57.30;94849.53;5069190;28;20228;-89
2022/10/14 07:17:21;;;;;;;3.47;3.17;;;;;;;19.69;57.00;94850.38;5083853;28;20197;-90
2022/10/14 07:19:49;;;;;;;3.17;2.90;;;;;;;19.53;56.81;94815.13;5085575;28;20237;-89
2022/10/14 07:22:20;;;;;;;3.27;2.97;;;;;;;19.68;56.71;94833.19;5103016;28;20232;-88
2022/10/14 07:24:48;;;;;;;6.57;3.40;;;;;;;19.92;56.26;94858.72;5106560;28;20200;-86
2022/10/14 07:27:19;;;;;;;3.90;3.60;;;;;;;20.00;56.30;94853.38;5102133;28;20257;-86
2022/10/14 07:29:48;;;;;;;3.30;3.10;;;;;;;19.98;56.22;94836.38;5099490;28;20210;-86
2022/10/14 07:32:18;;;;;;;5.70;3.47;;;;;;;20.13;55.58;94851.84;5106584;28;20202;-91
2022/10/14 07:34:47;;;;;;;3.20;3.00;;;;;;;20.25;55.00;94856.28;5111765;28;20223;-88
2022/10/14 07:37:15;;;;;;;4.37;3.23;;;;;;;19.84;55.35;94775.81;5100787;28;20194;-86
2022/10/14 07:39:55;;;;;;;3.27;3.07;;;;;;;20.40;55.00;94855.34;5103524;28;20198;-86
2022/10/14 07:42:24;;;;;;;3.67;3.20;;;;;;;20.06;54.55;94792.06;5101096;28;20229;-89
2022/10/14 07:44:53;;;;;;;3.90;3.33;;;;;;;20.45;54.61;94845.16;5096507;28;20208;-85
2022/10/14 07:47:32;;;;;;;4.30;3.58;;;;;;;20.41;54.30;94825.75;5105228;28;20194;-88
2022/10/14 07:50:01;;;;;;;4.00;3.60;;;;;;;20.33;54.16;94808.53;5105342;28;20197;-86
2022/10/14 07:52:30;;;;;;;5.27;3.23;;;;;;;20.44;53.67;94822.78;5106542;28;20641;-87
2022/10/14 07:54:59;;;;;;;4.30;3.57;;;;;;;20.62;53.78;94833.44;5103371;28;20201;-86
2022/10/14 07:57:29;;;;;;;4.83;3.53;;;;;;;20.80;53.66;94849.28;5081335;28;20190;-85
2022/10/14 07:59:58;;;;;;;4.03;3.10;;;;;;;20.83;53.43;94850.69;5097416;28;20241;-87
2022/10/14 08:02:26;;;;;;;3.95;3.60;;;;;;;20.90;53.45;94843.72;5087802;28;20772;-85
2022/10/14 08:04:57;;;;;;;3.55;3.25;;;;;;;20.95;53.61;94853.53;5084186;28;20201;-88
2022/10/14 08:07:26;;;;;;;4.05;3.70;;;;;;;20.99;53.53;94844.34;5080315;28;20203;-90
2022/10/14 08:09:57;;;;;;;4.15;3.75;;;;;;;21.03;53.27;94850.75;5097044;28;20226;-86
2022/10/14 08:12:27;;;;;;;3.90;3.35;;;;;;;21.08;52.87;94858.75;5105628;28;20186;-85
2022/10/14 08:14:58;;;;;;;5.80;3.65;;;;;;;21.12;52.72;94846.16;5106064;28;20204;-88
2022/10/14 08:17:27;;;;;;;5.78;4.10;;;;;;;20.88;52.71;94813.72;5110946;28;20212;-87
2022/10/14 08:19:55;;;;;;;4.85;3.50;;;;;;;21.17;52.87;94849.75;5103960;28;20194;-91
2022/10/14 08:22:27;;;;;;;3.88;3.45;;;;;;;21.19;52.79;94850.34;5102826;28;20220;-92
2022/10/14 08:24:56;;;;;;;5.13;3.83;;;;;;;20.96;52.47;94816.13;5089927;28;20197;-87
2022/10/14 08:27:26;;;;;;;5.18;3.83;;;;;;;21.22;52.28;94851.75;5109790;28;20453;-83
2022/10/14 08:29:58;;;;;;;7.63;3.40;;;;;;;21.20;52.40;94853.72;5086349;28;20276;-84
2022/10/14 08:32:26;;;;;;;4.03;3.72;;;;;;;21.24;52.02;94854.94;5086215;28;20576;-84
2022/10/14 08:34:56;;;;;;;4.18;3.88;;;;;;;21.03;51.76;94812.53;5077223;28;20683;-83
2022/10/14 08:37:29;;;;;;;3.65;3.35;;;;;;;21.17;51.86;94835.94;5088646;28;20205;-82
2022/10/14 08:39:57;;;;;;;5.72;3.47;;;;;;;21.28;51.71;94851.72;5088878;28;20202;-85
2022/10/14 08:42:44;;;;;;;3.90;3.60;;;;;;;21.34;51.63;94855.38;5082138;28;20233;-85
2022/10/14 08:45:19;;;;;;;3.80;3.50;;;;;;;21.37;51.22;94856.78;5090392;28;20182;-85
2022/10/14 08:47:49;;;;;;;9.30;3.78;;;;;;;21.40;51.18;94854.56;5084432;28;20221;-85
2022/10/14 08:50:28;;;;;;;3.85;3.55;;;;;;;21.44;50.95;94860.19;5086594;28;20193;-83
2022/10/14 08:53:03;;;;;;;5.28;3.28;;;;;;;21.45;50.93;94859.19;5090594;28;20189;-84
2022/10/14 08:55:38;;;;;;;5.70;3.88;;;;;;;21.43;50.58;94854.19;5091312;28;20181;-85
2022/10/14 08:58:15;;;;;;;4.03;3.47;;;;;;;21.51;50.69;94863.59;5087314;28;20272;-85
2022/10/14 09:00:51;;;;;;;4.13;3.22;;;;;;;21.46;50.54;94852.97;5083441;28;20287;-85
2022/10/14 09:03:23;;;;;;;3.42;3.15;;;;;;;21.45;49.96;94836.56;5094997;28;20194;-84
2022/10/14 09:05:59;;;;;;;3.38;3.10;;;;;;;21.63;49.80;94850.75;5109789;28;20209;-83
2022/10/14 09:08:37;;;;;;;3.85;2.85;;;;;;;21.67;49.92;94859.75;5094589;28;20592;-84
2022/10/14 09:11:07;;;;;;;3.22;2.80;;;;;;;21.54;49.69;94826.75;5094104;28;20205;-84
2022/10/14 09:13:41;;;;;;;3.80;3.03;;;;;;;21.73;49.66;94856.38;5074265;28;20205;-84
2022/10/14 09:16:16;;;;;;;3.13;2.83;;;;;;;21.71;49.40;94840.94;5081682;28;20189;-87
2022/10/14 09:18:50;;;;;;;3.22;2.90;;;;;;;21.82;49.27;94849.16;5086527;28;20193;-86
2022/10/14 09:21:29;;;;;;;3.42;2.80;;;;;;;21.80;49.38;94846.72;5070528;28;20221;-86
2022/10/14 09:24:02;;;;;;;3.78;2.90;;;;;;;21.74;49.12;94821.50;5086482;28;20186;-88
2022/10/14 09:26:40;;;;;;;4.03;2.83;;;;;;;21.95;49.00;94841.31;5085939;28;20296;-86
2022/10/14 09:29:24;;;;;;;3.50;2.75;;;;;;;21.98;48.80;94846.09;5090538;28;20189;-84
2022/10/14 09:31:55;;;;;;;2.97;2.78;;;;;;;22.02;48.69;94842.06;5084485;28;20185;-85
2022/10/14 09:34:35;;;;;;;3.78;2.75;;;;;;;22.06;48.62;94843.25;5086418;28;20294;-83
2022/10/14 09:37:23;;;;;;;4.70;2.80;;;;;;;22.09;48.11;94842.06;5077242;28;20274;-84
2022/10/14 09:39:56;;;;;;;4.13;2.97;;;;;;;22.11;48.23;94829.66;5083991;28;20197;-85
2022/10/14 09:42:32;;;;;;;2.70;2.50;;;;;;;22.16;48.19;94837.66;5069343;28;20699;-84
2022/10/14 09:45:12;;;;;;;2.78;2.58;;;;;;;22.19;48.10;94848.47;5056471;28;20200;-88
2022/10/14 09:47:52;;;;;;;2.50;2.30;;;;;;;22.17;47.80;94823.63;5069849;28;20257;-85
2022/10/14 09:50:27;;;;;;;2.97;2.72;;;;;;;22.25;47.94;94833.81;5088525;28;20217;-85
2022/10/14 09:53:02;;;;;;;2.75;2.55;;;;;;;22.29;47.81;94838.41;5082003;28;20225;-83
2022/10/14 09:55:35;;;;;;;3.00;2.60;;;;;;;22.21;47.82;94819.59;5082852;28;20198;-84
2022/10/14 09:58:08;;;;;;;3.30;2.70;;;;;;;22.25;47.53;94823.41;5075272;28;20204;-87
2022/10/14 10:00:43;;;;;;;3.25;2.95;;;;;;;22.34;47.54;94835.19;5076438;28;20186;-87
2022/10/14 10:03:26;;;;;;;3.00;2.70;;;;;;;22.27;47.25;94829.19;5071734;28;20276;-90
2022/10/14 10:06:08;;;;;;;3.50;3.03;;;;;;;22.21;47.57;94815.19;5087014;28;20197;-84
2022/10/14 10:08:45;;;;;;;3.17;2.88;;;;;;;22.37;47.43;94839.19;5081861;28;20265;-87
2022/10/14 10:11:14;;;;;;;3.25;2.92;;;;;;;22.36;47.45;94834.97;5083401;28;20645;-88
2022/10/14 10:13:45;;;;;;;3.10;2.80;;;;;;;22.30;47.21;94818.38;5083158;28;20198;-83
2022/10/14 10:16:26;;;;;;;4.07;2.83;;;;;;;22.35;47.07;94825.56;5071741;28;20269;-86
2022/10/14 10:19:00;;;;;;;5.18;2.90;;;;;;;22.39;46.77;94830.16;5088319;28;20194;-84
2022/10/14 10:21:30;;;;;;;7.88;3.10;;;;;;;22.38;46.76;94827.75;5079709;28;20194;-85
2022/10/14 10:24:00;;;;;;;4.03;2.88;;;;;;;22.33;46.18;94814.56;5074906;28;20202;-87
2022/10/14 10:26:33;;;;;;;5.75;2.65;;;;;;;22.41;46.09;94819.50;5086387;28;20651;-85
2022/10/14 10:29:02;;;;;;;4.20;2.95;;;;;;;22.36;46.14;94803.69;5079137;28;20688;-85
2022/10/14 10:31:47;;;;;;;3.47;3.17;;;;;;;22.47;45.85;94819.50;5090551;28;20189;-85
2022/10/14 10:34:39;;;;;;;3.00;2.80;;;;;;;22.33;45.62;94801.53;5081260;28;20213;-84
2022/10/14 10:37:19;;;;;;;3.35;2.80;;;;;;;22.49;45.60;94820.06;5085820;28;20189;-86
2022/10/14 10:39:58;;;;;;;3.28;2.80;;;;;;;22.48;45.63;94810.66;5088689;28;20685;-88
2022/10/14 10:42:33;;;;;;;4.82;3.25;;;;;;;22.30;45.69;94776.69;5082221;28;20217;-86
2022/10/14 10:45:07;;;;;;;3.58;2.70;;;;;;;22.52;45.49;94798.81;5095525;28;20197;-84
2022/10/14 10:47:44;;;;;;;3.00;2.80;;;;;;;22.59;45.25;94800.59;5089003;28;20206;-84
2022/10/14 10:50:41;;;;;;;5.00;3.05;;;;;;;22.58;44.84;94789.34;5081525;28;20258;-86
2022/10/14 10:53:38;;;;;;;5.38;2.63;;;;;;;22.62;44.82;94797.56;5091198;28;20217;-85
2022/10/14 10:56:17;;;;;;;3.13;2.78;;;;;;;22.30;44.85;94750.63;5086394;28;20198;-85
2022/10/14 10:59:05;;;;;;;3.25;2.95;;;;;;;22.34;45.05;94761.44;5075650;28;20194;-85
2022/10/14 11:01:41;;;;;;;3.50;3.20;;;;;;;22.54;45.21;94794.19;5082792;28;20198;-88
2022/10/14 11:04:26;;;;;;;2.97;2.72;;;;;;;22.57;45.04;94794.78;5091169;28;20201;-84
2022/10/14 11:12:58;;;;;;;2.47;2.33;;;;;;;22.50;44.24;94785.19;5086821;28;20184;-86
2022/10/14 11:15:33;;;;;;;2.40;2.22;;;;;;;22.52;43.93;94790.19;5078198;28;20683;-83
2022/10/14 11:18:03;;;;;;;2.85;2.30;;;;;;;22.49;43.74;94767.16;5077458;28;20205;-84
2022/10/14 11:20:45;;;;;;;3.25;2.20;;;;;;;22.60;43.29;94774.31;5087243;28;20209;-84
2022/10/14 11:23:39;;;;;;;2.00;1.90;;;;;;;22.63;42.92;94784.31;5082752;28;20229;-90
2022/10/14 11:26:19;;;;;;;2.33;2.15;;;;;;;22.60;42.77;94769.09;5091145;28;20194;-83
2022/10/14 11:28:53;;;;;;;2.30;2.10;;;;;;;22.65;42.73;94771.88;5087866;28;20280;-84
2022/10/14 11:31:30;;;;;;;4.90;2.40;;;;;;;22.56;42.58;94749.66;5086426;28;20204;-84
2022/10/14 11:34:21;;;;;;;3.35;2.15;;;;;;;22.66;42.67;94768.25;5083918;28;20199;-86
2022/10/14 11:36:59;;;;;;;1.92;1.80;;;;;;;22.58;42.24;94729.38;5086554;28;20565;-85
2022/10/14 11:39:38;;;;;;;1.90;1.80;;;;;;;22.76;42.20;94759.97;5073973;28;20670;-86
2022/10/14 11:42:23;;;;;;;2.85;1.67;;;;;;;22.54;41.76;94716.00;5090456;28;20225;-86
2022/10/14 11:45:01;;;;;;;2.30;2.00;;;;;;;22.79;41.88;94747.28;5077090;28;20191;-84
2022/10/14 11:47:34;;;;;;;2.97;1.65;;;;;;;22.80;41.21;94745.50;5073461;28;20273;-85
2022/10/14 11:50:05;;;;;;;2.42;2.17;;;;;;;22.74;41.11;94735.91;5091685;28;20190;-86
2022/10/14 11:52:40;;;;;;;2.13;1.90;;;;;;;22.79;41.17;94744.69;5086473;28;20197;-85
2022/10/14 11:55:14;;;;;;;1.70;1.60;;;;;;;22.77;40.89;94748.53;5087608;28;20203;-86
2022/10/14 11:57:46;;;;;;;1.70;1.60;;;;;;;22.76;40.34;94739.13;5075278;28;20194;-86
2022/10/14 12:00:32;;;;;;;2.40;1.83;;;;;;;22.75;40.20;94742.72;5089457;28;20194;-88